createdAt,value
2019-01-13T00:00:32.207Z,3.47
2019-01-13T00:02:59.917Z,3.07
2019-01-13T00:05:27.677Z,3.53
2019-01-13T00:07:55.088Z,3.20
2019-01-13T00:10:22.468Z,3.73
2019-01-13T00:12:50.267Z,3.10
2019-01-13T00:15:17.636Z,5.10
2019-01-13T00:17:45.118Z,3.77
2019-01-13T00:20:13.037Z,3.37
2019-01-13T00:22:40.418Z,3.50
2019-01-13T00:25:08.038Z,2.90
2019-01-13T00:27:35.388Z,2.73
2019-01-13T00:30:19.383Z,2.50
2019-01-13T00:32:45.868Z,3.00
2019-01-13T00:35:13.378Z,2.53
2019-01-13T00:37:40.858Z,2.67
2019-01-13T00:40:13.028Z,2.23
2019-01-13T00:42:40.628Z,2.50
2019-01-13T00:45:11.227Z,2.27
2019-01-13T00:47:38.799Z,2.23
2019-01-13T00:50:13.667Z,2.10
2019-01-13T00:52:41.628Z,4.20
2019-01-13T00:55:12.269Z,2.40
2019-01-13T00:57:39.568Z,2.17
2019-01-13T01:00:12.607Z,1.90
2019-01-13T01:02:40.048Z,1.60
2019-01-13T01:05:10.282Z,1.90
2019-01-13T01:07:37.817Z,1.90
2019-01-13T01:10:10.337Z,2.90
2019-01-13T01:12:38.077Z,2.20
2019-01-13T01:15:09.277Z,2.00
2019-01-13T01:17:36.657Z,1.37
2019-01-13T01:20:09.379Z,2.63
2019-01-13T01:22:36.998Z,1.83
2019-01-13T01:25:07.936Z,1.70
2019-01-13T01:27:35.347Z,1.70
2019-01-13T01:30:08.188Z,3.93
2019-01-13T01:32:35.557Z,1.53
2019-01-13T01:35:04.329Z,2.43
2019-01-13T01:37:31.438Z,2.57
2019-01-13T01:39:58.797Z,1.50
2019-01-13T01:42:26.388Z,1.50
2019-01-13T01:44:53.667Z,1.50
2019-01-13T01:47:21.127Z,1.40
2019-01-13T01:49:48.656Z,1.40
2019-01-13T01:52:16.240Z,1.50
2019-01-13T01:54:43.739Z,1.60
2019-01-13T01:57:11.088Z,1.40
2019-01-13T01:59:38.427Z,1.70
2019-01-13T02:02:06.500Z,1.73
2019-01-13T02:04:33.768Z,2.20
2019-01-13T02:07:01.307Z,1.90
2019-01-13T02:09:28.646Z,1.60
2019-01-13T02:11:56.210Z,3.27
2019-01-13T02:14:23.537Z,1.80
2019-01-13T02:16:51.039Z,1.60
2019-01-13T02:19:18.969Z,1.67
2019-01-13T02:21:46.857Z,1.70
2019-01-13T02:24:14.158Z,2.20
2019-01-13T02:26:41.721Z,2.70
2019-01-13T02:29:09.108Z,2.60
2019-01-13T02:31:36.537Z,2.50
2019-01-13T02:34:04.127Z,2.83
2019-01-13T02:36:31.298Z,2.60
2019-01-13T02:38:58.636Z,2.70
2019-01-13T02:41:27.948Z,2.67
2019-01-13T02:43:55.258Z,2.70
2019-01-13T02:46:23.017Z,2.70
2019-01-13T02:48:50.269Z,3.30
2019-01-13T02:51:17.718Z,3.23
2019-01-13T02:53:44.997Z,2.90
2019-01-13T02:56:12.387Z,2.83
2019-01-13T02:58:39.656Z,3.10
2019-01-13T03:01:07.008Z,2.80
2019-01-13T03:03:34.407Z,2.67
2019-01-13T03:06:02.071Z,3.03
2019-01-13T03:08:29.567Z,3.27
2019-01-13T03:10:57.117Z,3.07
2019-01-13T03:13:24.754Z,3.23
2019-01-13T03:15:52.195Z,3.30
2019-01-13T03:18:19.604Z,3.70
2019-01-13T03:20:48.144Z,3.13
2019-01-13T03:23:15.676Z,4.73
2019-01-13T03:25:42.777Z,3.00
2019-01-13T03:28:10.077Z,3.77
2019-01-13T03:30:37.628Z,3.40
2019-01-13T03:33:05.033Z,3.47
2019-01-13T03:35:32.857Z,2.90
2019-01-13T03:38:00.128Z,3.33
2019-01-13T03:40:27.489Z,3.53
2019-01-13T03:42:55.357Z,2.90
2019-01-13T03:45:23.216Z,3.20
2019-01-13T03:47:50.718Z,2.77
2019-01-13T03:50:20.538Z,2.50
2019-01-13T03:52:53.130Z,2.70
2019-01-13T03:55:21.037Z,2.67
2019-01-13T03:57:48.508Z,2.70
2019-01-13T04:00:22.630Z,2.50
2019-01-13T04:02:50.179Z,2.40
2019-01-13T04:05:17.867Z,2.60
2019-01-13T04:07:45.426Z,2.53
2019-01-13T04:10:15.696Z,2.43
2019-01-13T04:13:03.108Z,2.37
2019-01-13T04:15:38.099Z,2.50
2019-01-13T04:18:05.896Z,2.47
2019-01-13T04:20:33.258Z,2.20
2019-01-13T04:23:00.376Z,2.80
2019-01-13T04:25:27.918Z,3.20
2019-01-13T04:27:55.789Z,2.53
2019-01-13T04:30:23.657Z,2.63
2019-01-13T04:32:51.209Z,2.40
2019-01-13T04:35:18.609Z,2.60
2019-01-13T04:37:45.877Z,2.80
2019-01-13T04:40:13.646Z,2.47
2019-01-13T04:42:41.458Z,3.63
2019-01-13T04:45:09.681Z,2.60
2019-01-13T04:47:37.542Z,2.50
2019-01-13T04:50:09.759Z,2.93
2019-01-13T04:52:37.467Z,3.80
2019-01-13T04:55:06.829Z,4.77
2019-01-13T04:57:34.138Z,3.50
2019-01-13T05:00:01.659Z,3.30
2019-01-13T05:02:29.210Z,3.13
2019-01-13T05:04:56.717Z,3.43
2019-01-13T05:07:24.188Z,3.17
2019-01-13T05:09:51.275Z,3.47
2019-01-13T05:12:19.077Z,3.70
2019-01-13T05:14:46.458Z,3.57
2019-01-13T05:17:13.973Z,3.43
2019-01-13T05:19:41.424Z,4.43
2019-01-13T05:22:08.967Z,3.77
2019-01-13T05:24:36.199Z,3.60
2019-01-13T05:27:03.917Z,3.70
2019-01-13T05:29:31.668Z,3.63
2019-01-13T05:31:59.139Z,3.80
2019-01-13T05:34:26.789Z,3.80
2019-01-13T05:36:54.068Z,3.53
2019-01-13T05:39:21.519Z,4.20
2019-01-13T05:41:48.535Z,3.80
2019-01-13T05:44:16.067Z,4.63
2019-01-13T05:46:43.478Z,3.50
2019-01-13T05:49:10.914Z,4.00
2019-01-13T05:51:38.338Z,3.57
2019-01-13T05:54:05.852Z,3.87
2019-01-13T05:56:33.326Z,4.37
2019-01-13T05:59:00.716Z,3.60
2019-01-13T06:01:28.052Z,3.97
2019-01-13T06:03:55.348Z,3.90
2019-01-13T06:06:22.761Z,4.10
2019-01-13T06:08:50.037Z,3.63
2019-01-13T06:11:17.768Z,3.30
2019-01-13T06:13:45.147Z,3.60
2019-01-13T06:16:12.478Z,5.20
2019-01-13T06:18:40.359Z,3.73
2019-01-13T06:21:08.020Z,3.30
2019-01-13T06:23:35.224Z,4.13
2019-01-13T06:26:02.610Z,3.57
2019-01-13T06:28:30.038Z,3.10
2019-01-13T06:30:57.327Z,3.17
2019-01-13T06:33:25.218Z,3.50
2019-01-13T06:35:52.819Z,3.63
2019-01-13T06:38:20.400Z,3.70
2019-01-13T06:40:47.967Z,3.20
2019-01-13T06:43:15.417Z,3.60
2019-01-13T06:45:42.967Z,3.50
2019-01-13T06:48:10.369Z,3.70
2019-01-13T06:50:37.740Z,3.67
2019-01-13T06:53:05.662Z,3.70
2019-01-13T06:55:33.056Z,6.33
2019-01-13T06:58:00.307Z,3.93
2019-01-13T07:00:27.808Z,4.10
2019-01-13T07:02:55.777Z,4.33
2019-01-13T07:05:23.207Z,3.90
2019-01-13T07:07:50.768Z,5.70
2019-01-13T07:10:18.210Z,5.20
2019-01-13T07:12:45.710Z,4.10
2019-01-13T07:15:18.588Z,3.93
2019-01-13T07:17:46.438Z,4.80
2019-01-13T07:20:16.282Z,4.70
2019-01-13T07:22:43.799Z,5.07
2019-01-13T07:25:11.334Z,4.50
2019-01-13T07:27:38.958Z,5.13
2019-01-13T07:30:16.307Z,5.20
2019-01-13T07:32:43.497Z,4.83
2019-01-13T07:35:11.397Z,5.60
2019-01-13T07:37:38.788Z,4.87
2019-01-13T07:40:11.117Z,5.80
2019-01-13T07:42:38.669Z,5.73
2019-01-13T07:45:10.799Z,6.00
2019-01-13T07:47:38.427Z,6.30
2019-01-13T07:50:10.547Z,5.97
2019-01-13T07:52:37.788Z,5.90
2019-01-13T07:55:10.237Z,6.57
2019-01-13T07:57:37.878Z,7.10
2019-01-13T08:00:16.049Z,6.67
2019-01-13T08:02:43.636Z,6.60
2019-01-13T08:05:11.028Z,7.40
2019-01-13T08:07:38.528Z,6.50
2019-01-13T08:10:10.829Z,5.97
2019-01-13T08:12:38.568Z,6.10
2019-01-13T08:15:10.998Z,8.07
2019-01-13T08:17:38.496Z,5.63
2019-01-13T08:20:11.209Z,5.03
2019-01-13T08:22:38.628Z,5.10
2019-01-13T08:25:06.927Z,4.30
2019-01-13T08:27:34.407Z,5.23
2019-01-13T08:30:01.787Z,5.97
2019-01-13T08:32:29.157Z,5.93
2019-01-13T08:34:56.617Z,4.20
2019-01-13T08:37:24.107Z,4.80
2019-01-13T08:39:51.557Z,4.53
2019-01-13T08:42:19.028Z,4.50
2019-01-13T08:44:47.417Z,4.20
2019-01-13T08:47:14.949Z,4.43
2019-01-13T08:49:42.448Z,5.80
2019-01-13T08:52:09.838Z,5.03
2019-01-13T08:54:36.989Z,4.87
2019-01-13T08:57:04.398Z,5.70
2019-01-13T08:59:31.837Z,4.87
2019-01-13T09:01:59.303Z,4.97
2019-01-13T09:04:26.688Z,5.70
2019-01-13T09:06:53.816Z,7.80
2019-01-13T09:09:21.837Z,17.50
2019-01-13T09:11:49.297Z,6.20
2019-01-13T09:14:17.019Z,5.30
2019-01-13T09:16:44.598Z,5.53
2019-01-13T09:19:12.139Z,5.00
2019-01-13T09:21:39.518Z,5.00
2019-01-13T09:24:07.060Z,5.10
2019-01-13T09:26:34.399Z,6.27
2019-01-13T09:29:01.782Z,5.03
2019-01-13T09:31:29.158Z,5.50
2019-01-13T09:33:57.195Z,6.63
2019-01-13T09:36:24.323Z,6.37
2019-01-13T09:38:51.887Z,6.37
2019-01-13T09:41:19.203Z,6.33
2019-01-13T09:43:46.435Z,5.83
2019-01-13T09:46:13.948Z,5.57
2019-01-13T09:48:41.568Z,5.43
2019-01-13T09:51:08.948Z,5.10
2019-01-13T09:53:36.328Z,5.10
2019-01-13T09:56:04.017Z,5.50
2019-01-13T09:58:31.448Z,5.97
2019-01-13T10:00:58.846Z,5.20
2019-01-13T10:03:26.286Z,7.90
2019-01-13T10:05:53.808Z,6.30
2019-01-13T10:08:21.108Z,5.30
2019-01-13T10:10:48.467Z,6.97
2019-01-13T10:13:15.924Z,5.30
2019-01-13T10:15:43.378Z,5.40
2019-01-13T10:18:11.627Z,4.80
2019-01-13T10:20:38.950Z,5.00
2019-01-13T10:23:06.346Z,6.00
2019-01-13T10:25:33.980Z,6.40
2019-01-13T10:28:02.617Z,6.27
2019-01-13T10:30:30.318Z,5.70
2019-01-13T10:32:58.327Z,5.70
2019-01-13T10:35:26.442Z,6.60
2019-01-13T10:37:54.026Z,6.43
2019-01-13T10:40:26.210Z,7.80
2019-01-13T10:42:54.081Z,6.37
2019-01-13T10:45:21.770Z,6.57
2019-01-13T10:47:49.630Z,6.70
2019-01-13T10:50:21.308Z,6.27
2019-01-13T10:52:49.926Z,6.10
2019-01-13T10:55:17.956Z,5.63
2019-01-13T10:57:45.361Z,6.10
2019-01-13T11:00:19.767Z,6.60
2019-01-13T11:02:47.022Z,6.00
2019-01-13T11:05:14.768Z,5.93
2019-01-13T11:07:42.047Z,5.40
2019-01-13T11:10:13.628Z,5.90
2019-01-13T11:12:41.378Z,6.07
2019-01-13T11:15:21.245Z,5.23
2019-01-13T11:17:44.688Z,6.97
2019-01-13T11:20:19.529Z,4.63
2019-01-13T11:22:47.047Z,4.70
2019-01-13T11:25:14.948Z,4.70
2019-01-13T11:27:42.229Z,6.97
2019-01-13T11:30:14.770Z,4.60
2019-01-13T11:32:41.791Z,6.83
2019-01-13T11:35:11.668Z,3.90
2019-01-13T11:37:38.673Z,5.63
2019-01-13T11:40:10.929Z,4.10
2019-01-13T11:42:38.476Z,5.37
2019-01-13T11:45:09.258Z,8.60
2019-01-13T11:47:36.650Z,6.47
2019-01-13T11:50:12.010Z,4.87
2019-01-13T11:52:39.466Z,3.67
2019-01-13T11:55:11.138Z,3.77
2019-01-13T11:57:38.723Z,3.17
2019-01-13T12:00:14.549Z,3.97
2019-01-13T12:02:41.938Z,7.70
2019-01-13T12:05:09.439Z,5.40
2019-01-13T12:07:36.919Z,3.23
2019-01-13T12:10:09.867Z,3.23
2019-01-13T12:12:37.407Z,3.00
2019-01-13T12:15:10.028Z,3.47
2019-01-13T12:17:37.407Z,3.10
2019-01-13T12:20:10.208Z,3.27
2019-01-13T12:22:37.547Z,4.00
2019-01-13T12:25:09.959Z,4.13
2019-01-13T12:27:37.528Z,3.83
2019-01-13T12:30:13.127Z,2.67
2019-01-13T12:32:40.798Z,5.83
2019-01-13T12:35:08.408Z,2.87
2019-01-13T12:37:35.886Z,3.30
2019-01-13T12:40:08.920Z,2.60
2019-01-13T12:42:36.299Z,2.13
2019-01-13T12:45:08.338Z,3.17
2019-01-13T12:47:35.838Z,3.57
2019-01-13T12:50:07.930Z,1.97
2019-01-13T12:52:34.996Z,1.90
2019-01-13T12:55:03.311Z,2.90
2019-01-13T12:57:30.766Z,3.03
2019-01-13T12:59:58.338Z,2.30
2019-01-13T13:02:26.219Z,1.60
2019-01-13T13:04:53.497Z,1.40
2019-01-13T13:07:20.957Z,2.20
2019-01-13T13:09:49.510Z,3.67
2019-01-13T13:12:17.021Z,1.40
2019-01-13T13:14:44.327Z,1.77
2019-01-13T13:17:11.887Z,2.60
2019-01-13T13:19:39.243Z,2.40
2019-01-13T13:22:06.577Z,2.87
2019-01-13T13:24:33.999Z,2.17
2019-01-13T13:27:01.397Z,2.03
2019-01-13T13:29:28.797Z,2.20
2019-01-13T13:31:56.128Z,3.53
2019-01-13T13:34:23.556Z,2.07
2019-01-13T13:36:50.918Z,1.73
2019-01-13T13:39:18.738Z,1.87
2019-01-13T13:41:46.326Z,1.63
2019-01-13T13:44:13.727Z,2.33
2019-01-13T13:46:41.286Z,1.13
2019-01-13T13:49:08.561Z,1.27
2019-01-13T13:51:35.957Z,1.83
2019-01-13T13:54:03.786Z,1.67
2019-01-13T13:56:31.538Z,5.00
2019-01-13T13:58:59.167Z,3.47
2019-01-13T14:01:27.038Z,1.93
2019-01-13T14:03:54.436Z,1.77
2019-01-13T14:06:21.746Z,2.03
2019-01-13T14:09:09.099Z,1.40
2019-01-13T14:11:37.768Z,1.53
2019-01-13T14:14:05.103Z,2.20
2019-01-13T14:16:32.516Z,1.33
2019-01-13T14:18:59.868Z,1.60
2019-01-13T14:21:27.197Z,1.10
2019-01-13T14:23:54.860Z,3.77
2019-01-13T14:26:22.236Z,0.70
2019-01-13T14:28:49.786Z,1.57
2019-01-13T14:31:17.136Z,0.60
2019-01-13T14:33:44.484Z,1.20
2019-01-13T14:38:38.906Z,1.03
2019-01-13T14:41:06.326Z,0.63
2019-01-13T14:43:33.667Z,1.27
2019-01-13T14:46:01.046Z,0.60
2019-01-13T14:48:28.329Z,0.63
2019-01-13T14:50:56.866Z,0.77
2019-01-13T14:53:24.180Z,0.77
2019-01-13T14:55:51.467Z,0.93
2019-01-13T14:58:18.886Z,0.60
2019-01-13T15:00:46.557Z,1.20
2019-01-13T15:03:15.701Z,1.57
2019-01-13T15:05:43.467Z,0.60
2019-01-13T15:08:11.064Z,0.57
2019-01-13T15:10:38.509Z,0.73
2019-01-13T15:13:05.877Z,0.73
2019-01-13T15:15:33.989Z,0.87
2019-01-13T15:18:01.366Z,0.53
2019-01-13T15:20:29.368Z,1.20
2019-01-13T15:22:56.708Z,1.43
2019-01-13T15:25:28.122Z,0.50
2019-01-13T15:27:55.947Z,1.00
2019-01-13T15:30:30.698Z,0.50
2019-01-13T15:32:58.207Z,0.73
2019-01-13T15:35:26.374Z,0.57
2019-01-13T15:37:53.788Z,0.60
2019-01-13T15:40:21.336Z,0.50
2019-01-13T15:42:50.190Z,1.33
2019-01-13T15:45:20.842Z,0.60
2019-01-13T15:47:48.361Z,0.37
2019-01-13T15:50:25.138Z,1.87
2019-01-13T15:52:53.238Z,1.00
2019-01-13T15:55:20.845Z,1.83
2019-01-13T15:57:50.033Z,0.80
2019-01-13T16:00:29.039Z,0.87
2019-01-13T16:02:56.639Z,1.27
2019-01-13T16:05:25.688Z,1.07
2019-01-13T16:07:53.586Z,1.13
2019-01-13T16:10:26.602Z,0.50
2019-01-13T16:12:54.167Z,0.50
2019-01-13T16:15:21.687Z,1.33
2019-01-13T16:17:49.187Z,1.10
2019-01-13T16:20:29.577Z,0.90
2019-01-13T16:22:57.048Z,2.03
2019-01-13T16:25:24.698Z,2.23
2019-01-13T16:27:52.287Z,1.10
2019-01-13T16:30:26.602Z,1.30
2019-01-13T16:32:54.000Z,0.93
2019-01-13T16:37:48.336Z,1.77
2019-01-13T16:40:19.007Z,3.00
2019-01-13T16:42:46.357Z,1.67
2019-01-13T16:45:15.468Z,4.53
2019-01-13T16:47:43.096Z,2.23
2019-01-13T16:50:17.462Z,0.97
2019-01-13T16:52:49.017Z,1.30
2019-01-13T16:55:16.897Z,3.20
2019-01-13T16:57:44.187Z,2.47
2019-01-13T17:00:18.184Z,1.43
2019-01-13T17:02:45.847Z,0.50
2019-01-13T17:05:16.358Z,0.70
2019-01-13T17:07:43.979Z,1.50
2019-01-13T17:10:17.507Z,1.00
2019-01-13T17:12:44.977Z,1.00
2019-01-13T17:15:15.517Z,1.13
2019-01-13T17:17:42.879Z,1.03
2019-01-13T17:20:14.127Z,1.10
2019-01-13T17:22:42.048Z,1.90
2019-01-13T17:25:16.947Z,1.10
2019-01-13T17:27:44.457Z,2.27
2019-01-13T17:30:21.099Z,2.43
2019-01-13T17:32:48.668Z,1.33
2019-01-13T17:35:16.459Z,0.80
2019-01-13T17:37:44.029Z,1.57
2019-01-13T17:40:17.778Z,1.10
2019-01-13T17:42:45.217Z,1.17
2019-01-13T17:45:15.777Z,1.10
2019-01-13T17:47:43.817Z,0.90
2019-01-13T17:50:16.849Z,3.77
2019-01-13T17:52:44.343Z,1.27
2019-01-13T17:55:18.118Z,2.07
2019-01-13T17:57:45.870Z,1.67
2019-01-13T18:00:32.857Z,1.27
2019-01-13T18:03:04.633Z,1.00
2019-01-13T18:05:32.558Z,0.97
2019-01-13T18:08:00.198Z,0.70
2019-01-13T18:10:27.489Z,0.80
2019-01-13T18:12:54.828Z,0.73
2019-01-13T18:15:22.217Z,0.70
2019-01-13T18:17:49.627Z,0.70
2019-01-13T18:20:20.338Z,0.63
2019-01-13T18:22:47.974Z,0.73
2019-01-13T18:25:15.450Z,0.97
2019-01-13T18:27:42.888Z,1.03
2019-01-13T18:30:23.855Z,1.27
2019-01-13T18:32:51.080Z,1.07
2019-01-13T18:35:20.669Z,1.20
2019-01-13T18:37:48.431Z,0.87
2019-01-13T18:40:22.269Z,0.90
2019-01-13T18:42:49.687Z,1.20
2019-01-13T18:45:17.339Z,1.10
2019-01-13T18:47:44.828Z,1.27
2019-01-13T18:50:21.590Z,1.20
2019-01-13T18:52:56.519Z,1.20
2019-01-13T18:55:24.060Z,1.40
2019-01-13T18:57:51.608Z,1.43
2019-01-13T19:00:24.402Z,1.50
2019-01-13T19:02:52.029Z,2.03
2019-01-13T19:05:23.227Z,1.33
2019-01-13T19:07:50.598Z,1.80
2019-01-13T19:10:29.138Z,1.87
2019-01-13T19:13:26.947Z,1.43
2019-01-13T19:15:57.282Z,1.97
2019-01-13T19:18:24.847Z,1.60
2019-01-13T19:20:52.427Z,1.70
2019-01-13T19:23:20.520Z,2.17
2019-01-13T19:25:47.793Z,2.67
2019-01-13T19:28:15.139Z,2.10
2019-01-13T19:30:42.620Z,1.43
2019-01-13T19:33:10.108Z,1.60
2019-01-13T19:35:38.446Z,1.33
2019-01-13T19:38:06.008Z,1.00
2019-01-13T19:40:33.439Z,1.40
2019-01-13T19:43:00.847Z,1.10
2019-01-13T19:45:28.457Z,1.40
2019-01-13T19:47:56.010Z,1.43
2019-01-13T19:50:24.278Z,1.77
2019-01-13T19:52:51.829Z,1.50
2019-01-13T19:55:19.831Z,1.73
2019-01-13T19:57:47.298Z,1.10
2019-01-13T20:00:28.598Z,3.13
2019-01-13T20:02:56.009Z,1.60
2019-01-13T20:05:23.788Z,1.60
2019-01-13T20:07:51.219Z,3.30
2019-01-13T20:10:18.848Z,1.70
2019-01-13T20:12:46.188Z,1.63
2019-01-13T20:15:19.647Z,1.43
2019-01-13T20:17:46.800Z,1.30
2019-01-13T20:20:20.929Z,1.10
2019-01-13T20:22:48.667Z,1.60
2019-01-13T20:25:18.116Z,1.10
2019-01-13T20:27:45.687Z,1.10
2019-01-13T20:30:26.386Z,1.20
2019-01-13T20:32:53.989Z,1.20
2019-01-13T20:35:21.370Z,1.20
2019-01-13T20:37:48.807Z,1.63
2019-01-13T20:40:17.259Z,1.83
2019-01-13T20:42:44.937Z,2.33
2019-01-13T20:45:17.168Z,1.13
2019-01-13T20:47:44.406Z,1.03
2019-01-13T20:50:14.867Z,1.43
2019-01-13T20:52:43.317Z,1.63
2019-01-13T20:55:14.908Z,2.23
2019-01-13T20:57:42.390Z,1.80
2019-01-13T21:00:15.228Z,1.83
2019-01-13T21:02:42.330Z,3.80
2019-01-13T21:05:10.018Z,1.47
2019-01-13T21:07:37.547Z,2.43
2019-01-13T21:10:10.287Z,1.87
2019-01-13T21:12:37.939Z,2.20
2019-01-13T21:15:10.779Z,1.73
2019-01-13T21:17:38.086Z,1.70
2019-01-13T21:20:08.887Z,2.30
2019-01-13T21:22:36.776Z,2.73
2019-01-13T21:25:09.187Z,2.93
2019-01-13T21:27:36.728Z,1.50
2019-01-13T21:30:12.352Z,2.20
2019-01-13T21:32:39.878Z,1.00
2019-01-13T21:35:09.408Z,1.00
2019-01-13T21:37:36.956Z,1.20
2019-01-13T21:40:11.717Z,1.43
2019-01-13T21:42:39.017Z,1.20
2019-01-13T21:45:11.587Z,1.30
2019-01-13T21:47:39.057Z,1.07
2019-01-13T21:50:13.843Z,1.30
2019-01-13T21:52:41.296Z,1.40
2019-01-13T21:55:11.988Z,0.90
2019-01-13T21:57:39.648Z,1.07
2019-01-13T22:00:20.169Z,0.80
2019-01-13T22:02:47.897Z,1.20
2019-01-13T22:05:15.716Z,1.63
2019-01-13T22:07:43.199Z,0.70
2019-01-13T22:10:14.997Z,0.90
2019-01-13T22:12:43.088Z,2.33
2019-01-13T22:15:14.519Z,1.23
2019-01-13T22:17:41.818Z,1.40
2019-01-13T22:20:16.357Z,1.97
2019-01-13T22:22:45.158Z,1.20
2019-01-13T22:25:13.639Z,1.83
2019-01-13T22:27:41.016Z,1.30
2019-01-13T22:30:13.356Z,1.80
2019-01-13T22:32:40.677Z,1.30
2019-01-13T22:35:08.138Z,2.13
2019-01-13T22:37:35.916Z,1.23
2019-01-13T22:40:08.858Z,1.47
2019-01-13T22:42:36.370Z,1.57
2019-01-13T22:45:08.417Z,2.20
2019-01-13T22:47:35.838Z,0.80
2019-01-13T22:50:07.889Z,1.20
2019-01-13T22:52:35.367Z,0.97
2019-01-13T22:55:05.937Z,2.07
2019-01-13T22:57:33.478Z,1.07
2019-01-13T23:00:00.927Z,1.73
2019-01-13T23:02:28.766Z,0.80
2019-01-13T23:04:56.148Z,0.70
2019-01-13T23:07:23.678Z,1.00
2019-01-13T23:09:51.266Z,0.80
2019-01-13T23:12:18.647Z,0.77
2019-01-13T23:14:46.046Z,0.67
2019-01-13T23:17:13.488Z,0.70
2019-01-13T23:19:41.127Z,1.50
2019-01-13T23:22:08.408Z,2.03
2019-01-13T23:24:35.719Z,1.23
2019-01-13T23:27:03.218Z,0.80
2019-01-13T23:29:30.736Z,1.33
2019-01-13T23:31:58.847Z,1.23
2019-01-13T23:34:26.258Z,1.07
2019-01-13T23:36:54.266Z,1.00
2019-01-13T23:39:21.816Z,1.00
2019-01-13T23:41:49.068Z,1.10
2019-01-13T23:44:16.588Z,1.30
2019-01-13T23:46:44.167Z,1.47
2019-01-13T23:49:12.048Z,0.60
2019-01-13T23:51:39.586Z,1.27
2019-01-13T23:54:07.028Z,1.97
2019-01-13T23:56:34.507Z,0.80
2019-01-13T23:59:01.858Z,0.50
